sensor_id;sensor_type;location;lat;lon;timestamp;pressure;altitude;pressure_sealevel;temperature;humidity
22964;BME280;11648;49.306;6.934;2024-03-08T00:00:12;98191.94;;;10.96;52.56
22964;BME280;11648;49.306;6.934;2024-03-08T00:02:42;98185.78;;;10.97;52.08
22964;BME280;11648;49.306;6.934;2024-03-08T00:05:09;98179.03;;;10.79;53.22
22964;BME280;11648;49.306;6.934;2024-03-08T00:07:36;98184.34;;;10.77;53.46
22964;BME280;11648;49.306;6.934;2024-03-08T00:10:04;98183.00;;;10.52;54.07
22964;BME280;11648;49.306;6.934;2024-03-08T00:12:32;98186.41;;;10.57;53.82
22964;BME280;11648;49.306;6.934;2024-03-08T00:14:58;98178.63;;;10.51;53.46
22964;BME280;11648;49.306;6.934;2024-03-08T00:17:26;98184.75;;;10.52;54.08
22964;BME280;11648;49.306;6.934;2024-03-08T00:19:54;98177.75;;;10.51;53.89
22964;BME280;11648;49.306;6.934;2024-03-08T00:22:21;98185.22;;;10.20;55.00
22964;BME280;11648;49.306;6.934;2024-03-08T00:24:48;98173.78;;;10.22;54.99
22964;BME280;11648;49.306;6.934;2024-03-08T00:27:18;98168.56;;;10.19;54.64
22964;BME280;11648;49.306;6.934;2024-03-08T00:29:47;98164.91;;;10.28;54.77
22964;BME280;11648;49.306;6.934;2024-03-08T00:32:15;98155.31;;;10.27;54.64
22964;BME280;11648;49.306;6.934;2024-03-08T00:34:41;98157.13;;;10.22;54.69
22964;BME280;11648;49.306;6.934;2024-03-08T00:37:09;98155.44;;;10.13;54.94
22964;BME280;11648;49.306;6.934;2024-03-08T00:39:36;98157.22;;;10.14;55.06
22964;BME280;11648;49.306;6.934;2024-03-08T00:42:03;98141.19;;;10.31;55.05
22964;BME280;11648;49.306;6.934;2024-03-08T00:44:30;98151.75;;;10.29;54.75
22964;BME280;11648;49.306;6.934;2024-03-08T00:46:58;98145.97;;;10.03;54.87
22964;BME280;11648;49.306;6.934;2024-03-08T00:49:25;98154.38;;;10.29;54.47
22964;BME280;11648;49.306;6.934;2024-03-08T00:51:52;98147.97;;;10.47;54.45
22964;BME280;11648;49.306;6.934;2024-03-08T00:54:20;98140.78;;;9.97;55.56
22964;BME280;11648;49.306;6.934;2024-03-08T00:56:47;98136.66;;;9.79;56.31
22964;BME280;11648;49.306;6.934;2024-03-08T00:59:14;98148.72;;;9.94;55.61
22964;BME280;11648;49.306;6.934;2024-03-08T01:01:41;98136.03;;;10.26;54.60
22964;BME280;11648;49.306;6.934;2024-03-08T01:04:08;98132.75;;;10.08;55.20
22964;BME280;11648;49.306;6.934;2024-03-08T01:06:35;98130.97;;;10.10;55.76
22964;BME280;11648;49.306;6.934;2024-03-08T01:09:02;98114.34;;;10.06;56.10
22964;BME280;11648;49.306;6.934;2024-03-08T01:11:29;98117.72;;;10.19;55.68
22964;BME280;11648;49.306;6.934;2024-03-08T01:13:55;98120.78;;;9.85;56.49
22964;BME280;11648;49.306;6.934;2024-03-08T01:16:22;98117.31;;;9.83;56.79
22964;BME280;11648;49.306;6.934;2024-03-08T01:18:49;98116.31;;;9.93;55.50
22964;BME280;11648;49.306;6.934;2024-03-08T01:21:17;98118.97;;;9.90;56.16
22964;BME280;11648;49.306;6.934;2024-03-08T01:23:44;98113.19;;;9.64;57.34
22964;BME280;11648;49.306;6.934;2024-03-08T01:26:10;98104.28;;;9.74;57.03
22964;BME280;11648;49.306;6.934;2024-03-08T01:28:38;98102.53;;;9.76;56.30
22964;BME280;11648;49.306;6.934;2024-03-08T01:31:05;98103.59;;;9.62;57.29
22964;BME280;11648;49.306;6.934;2024-03-08T01:33:32;98097.81;;;10.00;56.38
22964;BME280;11648;49.306;6.934;2024-03-08T01:35:59;98089.53;;;9.66;56.96
22964;BME280;11648;49.306;6.934;2024-03-08T01:38:26;98085.50;;;10.02;56.39
22964;BME280;11648;49.306;6.934;2024-03-08T01:40:53;98085.59;;;9.96;56.30
22964;BME280;11648;49.306;6.934;2024-03-08T01:43:21;98078.81;;;9.79;56.67
22964;BME280;11648;49.306;6.934;2024-03-08T01:45:49;98085.75;;;9.85;56.46
22964;BME280;11648;49.306;6.934;2024-03-08T01:48:17;98072.69;;;9.80;56.80
22964;BME280;11648;49.306;6.934;2024-03-08T01:50:45;98074.03;;;9.45;57.63
22964;BME280;11648;49.306;6.934;2024-03-08T01:53:13;98074.69;;;9.62;56.89
22964;BME280;11648;49.306;6.934;2024-03-08T01:55:42;98066.75;;;9.65;56.68
22964;BME280;11648;49.306;6.934;2024-03-08T01:58:09;98067.78;;;9.53;57.34
22964;BME280;11648;49.306;6.934;2024-03-08T02:00:39;98068.47;;;9.67;56.85
22964;BME280;11648;49.306;6.934;2024-03-08T02:03:07;98062.47;;;9.56;57.91
22964;BME280;11648;49.306;6.934;2024-03-08T02:05:34;98058.13;;;9.55;57.24
22964;BME280;11648;49.306;6.934;2024-03-08T02:08:02;98056.09;;;9.74;57.09
22964;BME280;11648;49.306;6.934;2024-03-08T02:10:29;98052.03;;;9.53;57.65
22964;BME280;11648;49.306;6.934;2024-03-08T02:12:56;98042.38;;;9.52;57.43
22964;BME280;11648;49.306;6.934;2024-03-08T02:15:23;98041.66;;;9.44;57.95
22964;BME280;11648;49.306;6.934;2024-03-08T02:17:49;98040.00;;;9.34;58.01
22964;BME280;11648;49.306;6.934;2024-03-08T02:20:16;98044.19;;;9.50;57.79
22964;BME280;11648;49.306;6.934;2024-03-08T02:22:46;98034.50;;;9.54;56.82
22964;BME280;11648;49.306;6.934;2024-03-08T02:25:13;98027.88;;;9.24;58.46
22964;BME280;11648;49.306;6.934;2024-03-08T02:27:39;98028.59;;;9.36;57.50
22964;BME280;11648;49.306;6.934;2024-03-08T02:30:07;98023.03;;;9.59;57.42
22964;BME280;11648;49.306;6.934;2024-03-08T02:32:34;98024.81;;;9.59;57.40
22964;BME280;11648;49.306;6.934;2024-03-08T02:35:01;98031.00;;;9.55;56.97
22964;BME280;11648;49.306;6.934;2024-03-08T02:37:27;98021.56;;;9.40;57.55
22964;BME280;11648;49.306;6.934;2024-03-08T02:39:55;98017.06;;;9.48;57.17
22964;BME280;11648;49.306;6.934;2024-03-08T02:42:22;98013.69;;;9.38;58.28
22964;BME280;11648;49.306;6.934;2024-03-08T02:44:49;98008.78;;;9.11;58.92
22964;BME280;11648;49.306;6.934;2024-03-08T02:47:16;98012.94;;;9.29;57.91
22964;BME280;11648;49.306;6.934;2024-03-08T02:49:43;98005.06;;;9.29;58.39
22964;BME280;11648;49.306;6.934;2024-03-08T02:52:10;98003.94;;;9.48;57.84
22964;BME280;11648;49.306;6.934;2024-03-08T02:54:37;97999.22;;;9.06;58.80
22964;BME280;11648;49.306;6.934;2024-03-08T02:57:04;97999.63;;;9.44;57.73
22964;BME280;11648;49.306;6.934;2024-03-08T02:59:34;98001.56;;;9.28;58.08
22964;BME280;11648;49.306;6.934;2024-03-08T03:02:01;97998.19;;;9.19;57.79
22964;BME280;11648;49.306;6.934;2024-03-08T03:04:28;97999.25;;;9.04;58.73
22964;BME280;11648;49.306;6.934;2024-03-08T03:06:55;97986.97;;;9.08;59.11
22964;BME280;11648;49.306;6.934;2024-03-08T03:09:21;97988.66;;;9.12;58.34
22964;BME280;11648;49.306;6.934;2024-03-08T03:11:51;97993.19;;;9.01;58.77
22964;BME280;11648;49.306;6.934;2024-03-08T03:14:18;97985.34;;;8.98;59.25
22964;BME280;11648;49.306;6.934;2024-03-08T03:16:45;97982.81;;;8.90;59.47
22964;BME280;11648;49.306;6.934;2024-03-08T03:19:12;97992.59;;;8.74;59.61
22964;BME280;11648;49.306;6.934;2024-03-08T03:21:39;97995.84;;;8.98;58.41
22964;BME280;11648;49.306;6.934;2024-03-08T03:24:06;97985.84;;;9.25;58.26
22964;BME280;11648;49.306;6.934;2024-03-08T03:26:37;97984.53;;;8.92;58.89
22964;BME280;11648;49.306;6.934;2024-03-08T03:29:06;97983.41;;;9.12;58.52
22964;BME280;11648;49.306;6.934;2024-03-08T03:31:32;97976.22;;;9.26;57.86
22964;BME280;11648;49.306;6.934;2024-03-08T03:34:00;97979.13;;;9.05;58.18
22964;BME280;11648;49.306;6.934;2024-03-08T03:36:30;97980.00;;;9.02;58.32
22964;BME280;11648;49.306;6.934;2024-03-08T03:38:57;97978.56;;;8.77;59.33
22964;BME280;11648;49.306;6.934;2024-03-08T03:41:32;97982.63;;;9.04;58.27
22964;BME280;11648;49.306;6.934;2024-03-08T03:43:59;97972.41;;;8.82;58.14
22964;BME280;11648;49.306;6.934;2024-03-08T03:46:26;97971.47;;;8.85;58.22
22964;BME280;11648;49.306;6.934;2024-03-08T03:48:54;97968.94;;;8.79;58.66
22964;BME280;11648;49.306;6.934;2024-03-08T03:51:22;97971.59;;;8.76;58.65
22964;BME280;11648;49.306;6.934;2024-03-08T03:53:49;97970.59;;;8.84;58.54
22964;BME280;11648;49.306;6.934;2024-03-08T03:56:16;97982.81;;;8.88;58.45
22964;BME280;11648;49.306;6.934;2024-03-08T03:58:42;97969.50;;;9.04;57.95
22964;BME280;11648;49.306;6.934;2024-03-08T04:01:09;97973.19;;;8.87;58.11
22964;BME280;11648;49.306;6.934;2024-03-08T04:03:36;97963.47;;;8.97;58.04
22964;BME280;11648;49.306;6.934;2024-03-08T04:06:06;97974.41;;;8.59;59.00
22964;BME280;11648;49.306;6.934;2024-03-08T04:08:33;97963.78;;;8.71;58.12
22964;BME280;11648;49.306;6.934;2024-03-08T04:11:01;97969.06;;;8.67;58.49
22964;BME280;11648;49.306;6.934;2024-03-08T04:13:28;97969.81;;;8.79;57.95
22964;BME280;11648;49.306;6.934;2024-03-08T04:15:54;97974.91;;;8.91;57.87
22964;BME280;11648;49.306;6.934;2024-03-08T04:18:22;97959.53;;;8.61;58.30
22964;BME280;11648;49.306;6.934;2024-03-08T04:20:48;97966.69;;;8.46;58.77
22964;BME280;11648;49.306;6.934;2024-03-08T04:23:15;97971.88;;;8.50;58.92
22964;BME280;11648;49.306;6.934;2024-03-08T04:25:44;97968.97;;;8.76;58.38
22964;BME280;11648;49.306;6.934;2024-03-08T04:28:11;97966.59;;;8.52;58.61
22964;BME280;11648;49.306;6.934;2024-03-08T04:30:40;97964.97;;;8.43;58.67
22964;BME280;11648;49.306;6.934;2024-03-08T04:33:07;97970.16;;;8.49;58.26
22964;BME280;11648;49.306;6.934;2024-03-08T04:35:35;97971.97;;;8.41;58.70
22964;BME280;11648;49.306;6.934;2024-03-08T04:38:02;97966.53;;;8.61;58.28
22964;BME280;11648;49.306;6.934;2024-03-08T04:40:32;97957.66;;;8.69;57.98
22964;BME280;11648;49.306;6.934;2024-03-08T04:42:59;97963.56;;;8.89;57.39
22964;BME280;11648;49.306;6.934;2024-03-08T04:45:25;97958.53;;;8.73;57.61
22964;BME280;11648;49.306;6.934;2024-03-08T04:47:52;97954.44;;;8.48;57.86
22964;BME280;11648;49.306;6.934;2024-03-08T04:50:19;97946.38;;;8.64;57.94
22964;BME280;11648;49.306;6.934;2024-03-08T04:52:46;97950.63;;;8.76;57.43
22964;BME280;11648;49.306;6.934;2024-03-08T04:55:14;97949.16;;;8.51;58.17
22964;BME280;11648;49.306;6.934;2024-03-08T04:57:41;97943.63;;;8.73;57.62
22964;BME280;11648;49.306;6.934;2024-03-08T05:00:13;97949.94;;;8.57;57.85
22964;BME280;11648;49.306;6.934;2024-03-08T05:02:41;97952.63;;;8.54;57.77
22964;BME280;11648;49.306;6.934;2024-03-08T05:05:08;97945.47;;;8.67;57.50
22964;BME280;11648;49.306;6.934;2024-03-08T05:07:39;97947.50;;;8.42;57.86
22964;BME280;11648;49.306;6.934;2024-03-08T05:10:07;97947.16;;;8.72;57.34
22964;BME280;11648;49.306;6.934;2024-03-08T05:12:34;97944.88;;;8.42;58.17
22964;BME280;11648;49.306;6.934;2024-03-08T05:15:00;97945.63;;;8.53;57.91
22964;BME280;11648;49.306;6.934;2024-03-08T05:17:27;97933.25;;;8.64;57.52
22964;BME280;11648;49.306;6.934;2024-03-08T05:19:54;97944.59;;;8.66;56.95
22964;BME280;11648;49.306;6.934;2024-03-08T05:22:21;97936.00;;;8.52;57.43
22964;BME280;11648;49.306;6.934;2024-03-08T05:24:48;97938.72;;;8.46;57.90
22964;BME280;11648;49.306;6.934;2024-03-08T05:27:15;97940.63;;;8.27;57.95
22964;BME280;11648;49.306;6.934;2024-03-08T05:29:43;97937.75;;;8.53;57.56
22964;BME280;11648;49.306;6.934;2024-03-08T05:32:09;97941.13;;;8.64;56.77
22964;BME280;11648;49.306;6.934;2024-03-08T05:34:36;97948.41;;;8.39;57.88
22964;BME280;11648;49.306;6.934;2024-03-08T05:37:04;97940.50;;;8.42;57.63
22964;BME280;11648;49.306;6.934;2024-03-08T05:39:31;97944.97;;;8.31;58.03
22964;BME280;11648;49.306;6.934;2024-03-08T05:41:58;97946.63;;;8.43;57.23
22964;BME280;11648;49.306;6.934;2024-03-08T05:44:24;97941.47;;;8.32;57.94
22964;BME280;11648;49.306;6.934;2024-03-08T05:46:51;97942.28;;;8.37;57.29
22964;BME280;11648;49.306;6.934;2024-03-08T05:49:18;97938.75;;;8.43;57.39
22964;BME280;11648;49.306;6.934;2024-03-08T05:51:45;97935.34;;;8.33;57.46
22964;BME280;11648;49.306;6.934;2024-03-08T05:54:14;97932.09;;;8.06;58.16
22964;BME280;11648;49.306;6.934;2024-03-08T05:56:44;97932.06;;;8.12;58.55
22964;BME280;11648;49.306;6.934;2024-03-08T05:59:12;97935.72;;;7.92;58.52
22964;BME280;11648;49.306;6.934;2024-03-08T06:01:39;97937.34;;;8.06;58.62
22964;BME280;11648;49.306;6.934;2024-03-08T06:04:09;97928.50;;;8.19;57.89
22964;BME280;11648;49.306;6.934;2024-03-08T06:06:37;97928.69;;;7.94;58.33
22964;BME280;11648;49.306;6.934;2024-03-08T06:09:04;97930.19;;;8.21;57.97
22964;BME280;11648;49.306;6.934;2024-03-08T06:11:44;97922.31;;;8.23;57.52
22964;BME280;11648;49.306;6.934;2024-03-08T06:14:11;97918.81;;;8.25;57.64
22964;BME280;11648;49.306;6.934;2024-03-08T06:16:38;97909.19;;;8.29;57.16
22964;BME280;11648;49.306;6.934;2024-03-08T06:19:05;97910.91;;;8.30;57.22
22964;BME280;11648;49.306;6.934;2024-03-08T06:21:32;97908.31;;;8.28;56.81
22964;BME280;11648;49.306;6.934;2024-03-08T06:23:59;97909.09;;;8.35;56.74
22964;BME280;11648;49.306;6.934;2024-03-08T06:26:26;97905.94;;;8.80;55.64
22964;BME280;11648;49.306;6.934;2024-03-08T06:28:57;97902.16;;;8.32;56.44
22964;BME280;11648;49.306;6.934;2024-03-08T06:31:24;97907.47;;;8.97;55.38
22964;BME280;11648;49.306;6.934;2024-03-08T06:33:51;97909.81;;;9.16;54.11
22964;BME280;11648;49.306;6.934;2024-03-08T06:36:21;97900.91;;;8.62;55.55
22964;BME280;11648;49.306;6.934;2024-03-08T06:38:49;97899.84;;;8.77;54.99
22964;BME280;11648;49.306;6.934;2024-03-08T06:41:16;97897.59;;;9.14;54.47
22964;BME280;11648;49.306;6.934;2024-03-08T06:43:44;97897.94;;;9.51;53.18
22964;BME280;11648;49.306;6.934;2024-03-08T06:46:12;97893.72;;;9.92;52.50
22964;BME280;11648;49.306;6.934;2024-03-08T06:48:39;97897.47;;;10.28;51.18
22964;BME280;11648;49.306;6.934;2024-03-08T06:51:07;97901.28;;;10.57;50.10
22964;BME280;11648;49.306;6.934;2024-03-08T06:53:34;97897.63;;;10.65;49.34
22964;BME280;11648;49.306;6.934;2024-03-08T06:56:02;97887.09;;;11.45;47.51
22964;BME280;11648;49.306;6.934;2024-03-08T06:58:29;97880.50;;;12.32;45.89
22964;BME280;11648;49.306;6.934;2024-03-08T07:00:55;97879.47;;;12.37;44.33
22964;BME280;11648;49.306;6.934;2024-03-08T07:03:27;97876.88;;;12.67;43.93
22964;BME280;11648;49.306;6.934;2024-03-08T07:05:56;97868.47;;;12.83;42.99
22964;BME280;11648;49.306;6.934;2024-03-08T07:08:25;97865.34;;;12.69;43.39
22964;BME280;11648;49.306;6.934;2024-03-08T07:10:54;97864.63;;;12.94;42.55
22964;BME280;11648;49.306;6.934;2024-03-08T07:13:21;97861.75;;;14.11;40.83
22964;BME280;11648;49.306;6.934;2024-03-08T07:15:48;97853.47;;;14.46;39.64
22964;BME280;11648;49.306;6.934;2024-03-08T07:18:15;97836.13;;;15.52;37.45
22964;BME280;11648;49.306;6.934;2024-03-08T07:20:42;97835.06;;;16.79;35.47
22964;BME280;11648;49.306;6.934;2024-03-08T07:23:10;97821.06;;;17.13;34.89
22964;BME280;11648;49.306;6.934;2024-03-08T07:25:37;97806.66;;;18.90;32.53
22964;BME280;11648;49.306;6.934;2024-03-08T07:28:06;97806.44;;;19.10;31.62
22964;BME280;11648;49.306;6.934;2024-03-08T07:30:38;97790.84;;;21.11;29.15
22964;BME280;11648;49.306;6.934;2024-03-08T07:33:11;97783.41;;;21.70;26.88
22964;BME280;11648;49.306;6.934;2024-03-08T07:35:39;97780.13;;;21.52;27.46
22964;BME280;11648;49.306;6.934;2024-03-08T07:38:08;97785.16;;;22.10;26.89
22964;BME280;11648;49.306;6.934;2024-03-08T07:40:39;97759.13;;;23.37;24.85
22964;BME280;11648;49.306;6.934;2024-03-08T07:43:13;97755.59;;;23.37;24.79
22964;BME280;11648;49.306;6.934;2024-03-08T07:45:40;97752.66;;;24.11;24.42
22964;BME280;11648;49.306;6.934;2024-03-08T07:48:07;97756.78;;;22.58;25.15
22964;BME280;11648;49.306;6.934;2024-03-08T07:50:38;97760.56;;;21.91;26.22
22964;BME280;11648;49.306;6.934;2024-03-08T07:53:09;97761.84;;;22.63;25.32
22964;BME280;11648;49.306;6.934;2024-03-08T07:55:37;97767.94;;;22.65;24.72
22964;BME280;11648;49.306;6.934;2024-03-08T07:58:04;97753.53;;;24.11;23.63
22964;BME280;11648;49.306;6.934;2024-03-08T08:00:31;97740.88;;;25.47;22.54
22964;BME280;11648;49.306;6.934;2024-03-08T08:02:58;97755.72;;;25.95;21.81
22964;BME280;11648;49.306;6.934;2024-03-08T08:05:25;97744.00;;;26.06;21.81
22964;BME280;11648;49.306;6.934;2024-03-08T08:07:53;97735.28;;;26.76;21.37
22964;BME280;11648;49.306;6.934;2024-03-08T08:10:20;97733.19;;;25.42;22.10
22964;BME280;11648;49.306;6.934;2024-03-08T08:12:52;97730.53;;;25.31;22.15
22964;BME280;11648;49.306;6.934;2024-03-08T08:15:20;97739.66;;;26.46;21.19
22964;BME280;11648;49.306;6.934;2024-03-08T08:17:47;97736.97;;;26.26;21.17
22964;BME280;11648;49.306;6.934;2024-03-08T08:20:14;97732.00;;;26.51;20.69
22964;BME280;11648;49.306;6.934;2024-03-08T08:22:42;97720.44;;;27.40;20.13
22964;BME280;11648;49.306;6.934;2024-03-08T08:25:12;97718.09;;;27.95;20.11
22964;BME280;11648;49.306;6.934;2024-03-08T08:27:40;97708.81;;;27.00;20.16
22964;BME280;11648;49.306;6.934;2024-03-08T08:30:07;97709.41;;;27.91;20.05
22964;BME280;11648;49.306;6.934;2024-03-08T08:32:38;97703.19;;;29.40;18.62
22964;BME280;11648;49.306;6.934;2024-03-08T08:35:11;97704.16;;;30.63;17.60
22964;BME280;11648;49.306;6.934;2024-03-08T08:37:39;97715.09;;;27.60;19.78
22964;BME280;11648;49.306;6.934;2024-03-08T08:40:07;97712.69;;;29.89;18.32
22964;BME280;11648;49.306;6.934;2024-03-08T08:42:41;97695.34;;;32.51;16.51
22964;BME280;11648;49.306;6.934;2024-03-08T08:45:09;97703.22;;;32.54;15.69
22964;BME280;11648;49.306;6.934;2024-03-08T08:47:46;97694.50;;;31.78;15.96
22964;BME280;11648;49.306;6.934;2024-03-08T08:50:14;97695.59;;;30.50;17.01
22964;BME280;11648;49.306;6.934;2024-03-08T08:52:40;97703.19;;;30.03;17.32
22964;BME280;11648;49.306;6.934;2024-03-08T08:55:10;97698.91;;;30.00;17.36
22964;BME280;11648;49.306;6.934;2024-03-08T08:57:41;97695.84;;;30.64;17.57
22964;BME280;11648;49.306;6.934;2024-03-08T09:00:09;97694.94;;;31.15;17.00
22964;BME280;11648;49.306;6.934;2024-03-08T09:02:42;97695.22;;;30.45;16.87
22964;BME280;11648;49.306;6.934;2024-03-08T09:05:09;97709.97;;;30.24;17.27
22964;BME280;11648;49.306;6.934;2024-03-08T09:07:36;97718.56;;;29.67;17.80
22964;BME280;11648;49.306;6.934;2024-03-08T09:10:04;97712.22;;;29.76;17.89
22964;BME280;11648;49.306;6.934;2024-03-08T09:12:34;97718.41;;;28.21;18.93
22964;BME280;11648;49.306;6.934;2024-03-08T09:15:01;97709.78;;;29.01;18.55
22964;BME280;11648;49.306;6.934;2024-03-08T09:17:28;97715.53;;;28.32;18.73
22964;BME280;11648;49.306;6.934;2024-03-08T09:19:55;97706.50;;;29.34;18.48
22964;BME280;11648;49.306;6.934;2024-03-08T09:22:24;97717.81;;;28.92;18.28
22964;BME280;11648;49.306;6.934;2024-03-08T09:24:51;97701.63;;;29.37;18.08
22964;BME280;11648;49.306;6.934;2024-03-08T09:27:18;97705.91;;;29.85;17.66
22964;BME280;11648;49.306;6.934;2024-03-08T09:29:46;97694.38;;;31.46;16.41
22964;BME280;11648;49.306;6.934;2024-03-08T09:32:13;97708.38;;;30.39;17.51
22964;BME280;11648;49.306;6.934;2024-03-08T09:34:40;97686.03;;;30.97;16.60
22964;BME280;11648;49.306;6.934;2024-03-08T09:37:07;97682.72;;;31.69;16.51
22964;BME280;11648;49.306;6.934;2024-03-08T09:39:35;97670.88;;;33.45;15.72
22964;BME280;11648;49.306;6.934;2024-03-08T09:42:02;97674.38;;;34.53;14.88
22964;BME280;11648;49.306;6.934;2024-03-08T09:44:30;97663.16;;;35.65;13.73
22964;BME280;11648;49.306;6.934;2024-03-08T09:46:58;97670.63;;;36.35;13.62
22964;BME280;11648;49.306;6.934;2024-03-08T09:49:26;97658.06;;;36.47;13.20
22964;BME280;11648;49.306;6.934;2024-03-08T09:51:56;97649.63;;;36.21;13.33
22964;BME280;11648;49.306;6.934;2024-03-08T09:54:23;97655.22;;;33.00;14.77
22964;BME280;11648;49.306;6.934;2024-03-08T09:56:53;97655.19;;;33.78;14.98
22964;BME280;11648;49.306;6.934;2024-03-08T09:59:20;97647.63;;;35.07;14.40
22964;BME280;11648;49.306;6.934;2024-03-08T10:01:49;97641.59;;;34.97;13.90
22964;BME280;11648;49.306;6.934;2024-03-08T10:04:18;97643.22;;;34.91;13.95
22964;BME280;11648;49.306;6.934;2024-03-08T10:06:45;97644.53;;;34.66;14.38
22964;BME280;11648;49.306;6.934;2024-03-08T10:09:14;97643.09;;;31.67;16.38
22964;BME280;11648;49.306;6.934;2024-03-08T10:11:42;97641.03;;;31.69;16.36
22964;BME280;11648;49.306;6.934;2024-03-08T10:14:09;97643.50;;;33.31;15.46
22964;BME280;11648;49.306;6.934;2024-03-08T10:16:40;97637.13;;;32.44;15.62
22964;BME280;11648;49.306;6.934;2024-03-08T10:19:07;97640.56;;;31.81;15.98
22964;BME280;11648;49.306;6.934;2024-03-08T10:21:34;97636.25;;;34.22;14.73
22964;BME280;11648;49.306;6.934;2024-03-08T10:24:04;97625.50;;;34.87;14.21
22964;BME280;11648;49.306;6.934;2024-03-08T10:26:31;97624.59;;;33.83;14.86
22964;BME280;11648;49.306;6.934;2024-03-08T10:28:58;97620.50;;;34.76;14.27
22964;BME280;11648;49.306;6.934;2024-03-08T10:31:25;97617.09;;;36.39;12.99
22964;BME280;11648;49.306;6.934;2024-03-08T10:33:52;97625.13;;;34.76;14.09
22964;BME280;11648;49.306;6.934;2024-03-08T10:36:19;97619.97;;;31.79;15.35
22964;BME280;11648;49.306;6.934;2024-03-08T10:38:46;97623.00;;;33.35;15.13
22964;BME280;11648;49.306;6.934;2024-03-08T10:41:14;97602.06;;;35.50;13.38
22964;BME280;11648;49.306;6.934;2024-03-08T10:46:30;97598.19;;;36.78;12.71
22964;BME280;11648;49.306;6.934;2024-03-08T10:49:04;97591.91;;;36.29;13.25
22964;BME280;11648;49.306;6.934;2024-03-08T10:51:33;97589.06;;;35.94;13.43
22964;BME280;11648;49.306;6.934;2024-03-08T10:54:01;97585.56;;;36.90;13.38
22964;BME280;11648;49.306;6.934;2024-03-08T10:56:29;97574.63;;;36.56;12.88
22964;BME280;11648;49.306;6.934;2024-03-08T10:58:56;97585.63;;;36.62;13.04
22964;BME280;11648;49.306;6.934;2024-03-08T11:01:23;97590.41;;;34.91;14.01
22964;BME280;11648;49.306;6.934;2024-03-08T11:03:52;97585.13;;;34.75;14.25
22964;BME280;11648;49.306;6.934;2024-03-08T11:09:27;97585.72;;;35.20;13.90
22964;BME280;11648;49.306;6.934;2024-03-08T11:12:26;97576.38;;;35.30;13.28
22964;BME280;11648;49.306;6.934;2024-03-08T11:15:00;97570.31;;;35.70;13.65
22964;BME280;11648;49.306;6.934;2024-03-08T11:19:55;97568.69;;;34.16;14.50
22964;BME280;11648;49.306;6.934;2024-03-08T11:22:27;97565.47;;;34.56;14.39
22964;BME280;11648;49.306;6.934;2024-03-08T11:25:04;97570.94;;;34.42;14.13
22964;BME280;11648;49.306;6.934;2024-03-08T11:27:37;97573.78;;;34.92;13.97
22964;BME280;11648;49.306;6.934;2024-03-08T11:30:08;97575.19;;;34.15;14.38
22964;BME280;11648;49.306;6.934;2024-03-08T11:32:45;97563.22;;;33.25;15.06
22964;BME280;11648;49.306;6.934;2024-03-08T11:35:20;97570.78;;;32.21;16.27
22964;BME280;11648;49.306;6.934;2024-03-08T11:37:47;97561.75;;;34.72;14.37
22964;BME280;11648;49.306;6.934;2024-03-08T11:40:15;97552.28;;;34.60;14.22
22964;BME280;11648;49.306;6.934;2024-03-08T11:42:47;97551.53;;;34.22;14.61
22964;BME280;11648;49.306;6.934;2024-03-08T11:45:16;97542.72;;;35.14;14.22
22964;BME280;11648;49.306;6.934;2024-03-08T11:47:45;97542.66;;;34.35;14.39
22964;BME280;11648;49.306;6.934;2024-03-08T11:50:17;97534.50;;;33.06;15.18
22964;BME280;11648;49.306;6.934;2024-03-08T11:52:48;97535.75;;;33.49;15.05
22964;BME280;11648;49.306;6.934;2024-03-08T11:55:16;97542.06;;;32.65;15.79
22964;BME280;11648;49.306;6.934;2024-03-08T11:57:47;97524.22;;;34.22;14.80
22964;BME280;11648;49.306;6.934;2024-03-08T12:00:16;97526.09;;;34.21;14.60
22964;BME280;11648;49.306;6.934;2024-03-08T12:03:02;97515.72;;;34.46;14.29
22964;BME280;11648;49.306;6.934;2024-03-08T12:05:29;97515.06;;;34.44;14.42
22964;BME280;11648;49.306;6.934;2024-03-08T12:07:58;97504.47;;;34.56;14.28
22964;BME280;11648;49.306;6.934;2024-03-08T12:10:28;97502.53;;;35.36;13.91
22964;BME280;11648;49.306;6.934;2024-03-08T12:12:57;97497.72;;;35.81;13.81
22964;BME280;11648;49.306;6.934;2024-03-08T12:15:27;97507.75;;;32.79;15.45
22964;BME280;11648;49.306;6.934;2024-03-08T12:17:55;97498.78;;;33.24;15.30
22964;BME280;11648;49.306;6.934;2024-03-08T12:20:27;97500.38;;;32.41;15.83
22964;BME280;11648;49.306;6.934;2024-03-08T12:22:58;97485.09;;;32.31;15.88
22964;BME280;11648;49.306;6.934;2024-03-08T12:25:33;97478.72;;;32.08;16.28
22964;BME280;11648;49.306;6.934;2024-03-08T12:28:11;97484.00;;;32.49;16.23
22964;BME280;11648;49.306;6.934;2024-03-08T12:30:47;97477.22;;;31.90;15.93
22964;BME280;11648;49.306;6.934;2024-03-08T12:33:14;97480.97;;;31.16;17.02
22964;BME280;11648;49.306;6.934;2024-03-08T12:35:50;97478.06;;;31.01;17.14
22964;BME280;11648;49.306;6.934;2024-03-08T12:38:21;97482.72;;;30.25;17.42
22964;BME280;11648;49.306;6.934;2024-03-08T12:40:58;97476.50;;;28.76;18.75
22964;BME280;11648;49.306;6.934;2024-03-08T12:43:26;97468.19;;;27.30;20.31
22964;BME280;11648;49.306;6.934;2024-03-08T12:45:53;97473.53;;;25.64;22.03
22964;BME280;11648;49.306;6.934;2024-03-08T12:48:21;97489.84;;;24.89;22.95
22964;BME280;11648;49.306;6.934;2024-03-08T12:50:48;97477.03;;;24.28;23.54
22964;BME280;11648;49.306;6.934;2024-03-08T12:53:17;97483.44;;;23.36;25.07
22964;BME280;11648;49.306;6.934;2024-03-08T12:55:44;97475.84;;;22.60;25.62
22964;BME280;11648;49.306;6.934;2024-03-08T12:58:11;97468.09;;;22.45;25.93
22964;BME280;11648;49.306;6.934;2024-03-08T13:00:38;97476.34;;;21.44;27.57
22964;BME280;11648;49.306;6.934;2024-03-08T13:03:09;97473.47;;;20.95;28.07
22964;BME280;11648;49.306;6.934;2024-03-08T13:05:38;97473.53;;;20.81;28.39
22964;BME280;11648;49.306;6.934;2024-03-08T13:08:08;97474.53;;;20.53;28.51
22964;BME280;11648;49.306;6.934;2024-03-08T13:10:40;97470.00;;;20.41;28.75
22964;BME280;11648;49.306;6.934;2024-03-08T13:13:10;97465.31;;;20.84;29.02
22964;BME280;11648;49.306;6.934;2024-03-08T13:15:40;97469.41;;;20.09;29.36
22964;BME280;11648;49.306;6.934;2024-03-08T13:18:07;97468.19;;;20.27;29.60